sensor_id;sensor_type;location;lat;lon;timestamp;pressure;altitude;pressure_sealevel;temperature;humidity
73870;BME280;64924;42.140;24.762;2023-04-06T00:01:26;99431.31;;;7.02;43.13
73870;BME280;64924;42.140;24.762;2023-04-06T00:03:51;99423.22;;;7.02;42.97
73870;BME280;64924;42.140;24.762;2023-04-06T00:06:17;99411.09;;;6.98;42.73
73870;BME280;64924;42.140;24.762;2023-04-06T00:08:42;99418.63;;;6.80;43.19
73870;BME280;64924;42.140;24.762;2023-04-06T00:11:08;99425.34;;;6.84;43.30
73870;BME280;64924;42.140;24.762;2023-04-06T00:13:34;99435.47;;;6.82;43.44
73870;BME280;64924;42.140;24.762;2023-04-06T00:16:00;99379.66;;;6.51;43.54
73870;BME280;64924;42.140;24.762;2023-04-06T00:18:25;99399.41;;;6.75;43.21
73870;BME280;64924;42.140;24.762;2023-04-06T00:20:51;99423.34;;;6.78;43.14
73870;BME280;64924;42.140;24.762;2023-04-06T00:23:17;99424.00;;;6.80;43.45
73870;BME280;64924;42.140;24.762;2023-04-06T00:25:43;99418.78;;;6.78;43.54
73870;BME280;64924;42.140;24.762;2023-04-06T00:28:08;99415.75;;;6.81;43.24
73870;BME280;64924;42.140;24.762;2023-04-06T00:30:34;99370.22;;;6.47;43.58
73870;BME280;64924;42.140;24.762;2023-04-06T00:32:59;99380.16;;;6.47;43.61
73870;BME280;64924;42.140;24.762;2023-04-06T00:35:26;99371.59;;;6.43;43.76
73870;BME280;64924;42.140;24.762;2023-04-06T00:37:51;99400.94;;;6.69;43.76
73870;BME280;64924;42.140;24.762;2023-04-06T00:40:17;99397.47;;;6.60;43.63
73870;BME280;64924;42.140;24.762;2023-04-06T00:42:42;99405.56;;;6.60;43.98
73870;BME280;64924;42.140;24.762;2023-04-06T00:45:09;99389.06;;;6.55;43.72
73870;BME280;64924;42.140;24.762;2023-04-06T00:47:34;99412.13;;;6.66;43.70
73870;BME280;64924;42.140;24.762;2023-04-06T00:50:00;99380.00;;;6.48;43.90
73870;BME280;64924;42.140;24.762;2023-04-06T00:52:25;99400.56;;;6.49;43.71
73870;BME280;64924;42.140;24.762;2023-04-06T00:54:51;99390.13;;;6.46;43.68
73870;BME280;64924;42.140;24.762;2023-04-06T00:57:17;99400.84;;;6.62;43.38
73870;BME280;64924;42.140;24.762;2023-04-06T00:59:43;99396.94;;;6.65;43.31
73870;BME280;64924;42.140;24.762;2023-04-06T01:02:09;99343.88;;;6.26;43.53
73870;BME280;64924;42.140;24.762;2023-04-06T01:04:34;99395.69;;;6.45;44.03
73870;BME280;64924;42.140;24.762;2023-04-06T01:07:00;99356.72;;;6.16;44.32
73870;BME280;64924;42.140;24.762;2023-04-06T01:09:30;99386.06;;;6.50;43.90
73870;BME280;64924;42.140;24.762;2023-04-06T01:11:56;99384.41;;;6.41;44.43
73870;BME280;64924;42.140;24.762;2023-04-06T01:14:23;99375.22;;;6.27;44.07
73870;BME280;64924;42.140;24.762;2023-04-06T01:16:48;99364.44;;;6.27;43.95
73870;BME280;64924;42.140;24.762;2023-04-06T01:19:14;99385.91;;;6.44;44.19
73870;BME280;64924;42.140;24.762;2023-04-06T01:21:40;99380.66;;;6.50;43.83
73870;BME280;64924;42.140;24.762;2023-04-06T01:24:07;99365.59;;;6.64;43.56
73870;BME280;64924;42.140;24.762;2023-04-06T01:26:34;99364.91;;;6.62;43.79
73870;BME280;64924;42.140;24.762;2023-04-06T01:29:00;99367.84;;;6.52;43.71
73870;BME280;64924;42.140;24.762;2023-04-06T01:31:26;99370.66;;;6.28;44.38
73870;BME280;64924;42.140;24.762;2023-04-06T01:33:52;99355.19;;;6.22;44.28
73870;BME280;64924;42.140;24.762;2023-04-06T01:36:18;99353.28;;;6.30;43.94
73870;BME280;64924;42.140;24.762;2023-04-06T01:38:44;99362.84;;;6.33;43.88
73870;BME280;64924;42.140;24.762;2023-04-06T01:41:10;99321.53;;;6.01;44.13
73870;BME280;64924;42.140;24.762;2023-04-06T01:43:36;99338.84;;;6.15;43.74
73870;BME280;64924;42.140;24.762;2023-04-06T01:46:01;99347.34;;;6.35;43.75
73870;BME280;64924;42.140;24.762;2023-04-06T01:48:27;99353.72;;;6.42;43.43
73870;BME280;64924;42.140;24.762;2023-04-06T01:50:53;99346.56;;;6.26;43.67
73870;BME280;64924;42.140;24.762;2023-04-06T01:53:19;99351.44;;;6.31;43.90
73870;BME280;64924;42.140;24.762;2023-04-06T01:55:44;99347.69;;;6.32;43.80
73870;BME280;64924;42.140;24.762;2023-04-06T01:58:10;99347.34;;;6.35;43.15
73870;BME280;64924;42.140;24.762;2023-04-06T02:00:36;99338.31;;;6.20;43.96
73870;BME280;64924;42.140;24.762;2023-04-06T02:03:01;99330.22;;;6.20;43.76
73870;BME280;64924;42.140;24.762;2023-04-06T02:05:30;99335.84;;;6.41;43.54
73870;BME280;64924;42.140;24.762;2023-04-06T02:07:56;99334.19;;;6.32;43.67
73870;BME280;64924;42.140;24.762;2023-04-06T02:10:22;99335.69;;;6.34;43.81
73870;BME280;64924;42.140;24.762;2023-04-06T02:12:48;99329.03;;;6.22;44.03
73870;BME280;64924;42.140;24.762;2023-04-06T02:15:14;99324.69;;;6.13;44.03
73870;BME280;64924;42.140;24.762;2023-04-06T02:17:40;99334.63;;;6.13;44.19
73870;BME280;64924;42.140;24.762;2023-04-06T02:20:06;99352.53;;;6.06;44.40
73870;BME280;64924;42.140;24.762;2023-04-06T02:22:32;99344.25;;;6.15;43.85
73870;BME280;64924;42.140;24.762;2023-04-06T02:24:57;99309.47;;;5.81;44.09
73870;BME280;64924;42.140;24.762;2023-04-06T02:27:23;99330.28;;;6.03;44.56
73870;BME280;64924;42.140;24.762;2023-04-06T02:29:48;99322.94;;;5.89;44.39
73870;BME280;64924;42.140;24.762;2023-04-06T02:32:14;99335.19;;;6.00;44.69
73870;BME280;64924;42.140;24.762;2023-04-06T02:34:39;99334.53;;;5.98;44.66
73870;BME280;64924;42.140;24.762;2023-04-06T02:37:05;99336.38;;;5.97;44.35
73870;BME280;64924;42.140;24.762;2023-04-06T02:39:30;99345.97;;;6.00;44.81
73870;BME280;64924;42.140;24.762;2023-04-06T02:41:56;99350.19;;;6.02;44.96
73870;BME280;64924;42.140;24.762;2023-04-06T02:44:22;99356.59;;;6.01;44.61
73870;BME280;64924;42.140;24.762;2023-04-06T02:46:48;99339.97;;;5.82;44.88
73870;BME280;64924;42.140;24.762;2023-04-06T02:49:13;99370.75;;;5.95;45.12
73870;BME280;64924;42.140;24.762;2023-04-06T02:51:39;99350.88;;;5.96;44.75
73870;BME280;64924;42.140;24.762;2023-04-06T02:54:04;99351.72;;;5.97;45.04
73870;BME280;64924;42.140;24.762;2023-04-06T02:56:30;99348.19;;;5.96;44.86
73870;BME280;64924;42.140;24.762;2023-04-06T02:58:55;99336.44;;;5.89;45.04
73870;BME280;64924;42.140;24.762;2023-04-06T03:01:21;99363.34;;;5.97;44.61
73870;BME280;64924;42.140;24.762;2023-04-06T03:03:46;99311.53;;;5.63;44.83
73870;BME280;64924;42.140;24.762;2023-04-06T03:06:12;99348.53;;;5.85;45.07
73870;BME280;64924;42.140;24.762;2023-04-06T03:08:37;99276.09;;;5.35;45.01
73870;BME280;64924;42.140;24.762;2023-04-06T03:11:03;99348.22;;;5.80;45.30
73870;BME280;64924;42.140;24.762;2023-04-06T03:13:28;99340.66;;;5.76;45.39
73870;BME280;64924;42.140;24.762;2023-04-06T03:15:54;99350.59;;;5.75;45.63
73870;BME280;64924;42.140;24.762;2023-04-06T03:18:24;99355.81;;;5.93;45.18
73870;BME280;64924;42.140;24.762;2023-04-06T03:20:50;99353.75;;;5.95;44.96
73870;BME280;64924;42.140;24.762;2023-04-06T03:23:16;99301.28;;;5.58;45.18
73870;BME280;64924;42.140;24.762;2023-04-06T03:25:41;99348.56;;;5.77;45.40
73870;BME280;64924;42.140;24.762;2023-04-06T03:28:07;99334.44;;;5.59;45.80
73870;BME280;64924;42.140;24.762;2023-04-06T03:30:33;99358.00;;;5.73;46.06
73870;BME280;64924;42.140;24.762;2023-04-06T03:32:58;99348.56;;;5.69;45.73
73870;BME280;64924;42.140;24.762;2023-04-06T03:35:24;99350.41;;;5.77;45.66
73870;BME280;64924;42.140;24.762;2023-04-06T03:37:50;99353.47;;;5.65;46.16
73870;BME280;64924;42.140;24.762;2023-04-06T03:40:15;99244.69;;;4.95;46.09
73870;BME280;64924;42.140;24.762;2023-04-06T03:42:41;99365.78;;;5.60;46.50
73870;BME280;64924;42.140;24.762;2023-04-06T03:45:07;99355.00;;;5.60;46.33
73870;BME280;64924;42.140;24.762;2023-04-06T03:47:32;99356.34;;;5.64;46.12
73870;BME280;64924;42.140;24.762;2023-04-06T03:49:58;99344.59;;;5.57;46.38
73870;BME280;64924;42.140;24.762;2023-04-06T03:52:23;99356.69;;;5.61;46.56
73870;BME280;64924;42.140;24.762;2023-04-06T03:54:49;99362.06;;;5.61;46.63
73870;BME280;64924;42.140;24.762;2023-04-06T03:57:14;99351.28;;;5.61;46.12
73870;BME280;64924;42.140;24.762;2023-04-06T03:59:40;99353.28;;;5.75;46.04
73870;BME280;64924;42.140;24.762;2023-04-06T04:02:06;99354.97;;;5.76;45.89
73870;BME280;64924;42.140;24.762;2023-04-06T04:04:31;99338.63;;;5.69;46.10
73870;BME280;64924;42.140;24.762;2023-04-06T04:06:57;99352.75;;;5.88;45.73
73870;BME280;64924;42.140;24.762;2023-04-06T04:09:22;99352.56;;;5.97;45.75
73870;BME280;64924;42.140;24.762;2023-04-06T04:11:48;99345.47;;;5.96;45.85
73870;BME280;64924;42.140;24.762;2023-04-06T04:14:13;99343.91;;;6.18;45.27
73870;BME280;64924;42.140;24.762;2023-04-06T04:16:39;99328.00;;;6.54;44.21
73870;BME280;64924;42.140;24.762;2023-04-06T04:19:06;99335.97;;;7.16;42.94
73870;BME280;64924;42.140;24.762;2023-04-06T04:21:32;99342.75;;;7.50;42.24
73870;BME280;64924;42.140;24.762;2023-04-06T04:23:57;99289.31;;;7.22;42.00
73870;BME280;64924;42.140;24.762;2023-04-06T04:26:22;99336.34;;;7.80;41.55
73870;BME280;64924;42.140;24.762;2023-04-06T04:28:48;99335.81;;;8.14;40.68
73870;BME280;64924;42.140;24.762;2023-04-06T04:31:13;99329.72;;;8.42;40.16
73870;BME280;64924;42.140;24.762;2023-04-06T04:33:39;99323.59;;;8.90;39.26
73870;BME280;64924;42.140;24.762;2023-04-06T04:36:05;99316.47;;;9.11;38.30
73870;BME280;64924;42.140;24.762;2023-04-06T04:38:31;99336.78;;;8.79;39.18
73870;BME280;64924;42.140;24.762;2023-04-06T04:40:56;99342.31;;;8.49;39.60
73870;BME280;64924;42.140;24.762;2023-04-06T04:43:22;99346.44;;;8.16;40.25
73870;BME280;64924;42.140;24.762;2023-04-06T04:45:47;99334.28;;;7.82;40.77
73870;BME280;64924;42.140;24.762;2023-04-06T04:48:13;99328.16;;;7.59;41.34
73870;BME280;64924;42.140;24.762;2023-04-06T04:50:38;99317.28;;;7.29;41.97
73870;BME280;64924;42.140;24.762;2023-04-06T04:53:04;99282.53;;;6.89;42.30
73870;BME280;64924;42.140;24.762;2023-04-06T04:55:32;99315.53;;;6.99;42.70
73870;BME280;64924;42.140;24.762;2023-04-06T04:57:58;99335.69;;;7.11;42.70
73870;BME280;64924;42.140;24.762;2023-04-06T05:00:23;99289.13;;;6.86;42.37
73870;BME280;64924;42.140;24.762;2023-04-06T05:02:49;99340.91;;;7.13;42.70
73870;BME280;64924;42.140;24.762;2023-04-06T05:05:15;99277.88;;;6.83;42.59
73870;BME280;64924;42.140;24.762;2023-04-06T05:07:40;99309.44;;;7.20;42.37
73870;BME280;64924;42.140;24.762;2023-04-06T05:10:06;99325.22;;;7.31;42.40
73870;BME280;64924;42.140;24.762;2023-04-06T05:12:32;99310.09;;;7.22;42.24
73870;BME280;64924;42.140;24.762;2023-04-06T05:14:57;99316.66;;;7.57;42.13
73870;BME280;64924;42.140;24.762;2023-04-06T05:17:23;99304.94;;;7.64;42.10
73870;BME280;64924;42.140;24.762;2023-04-06T05:19:49;99325.34;;;7.82;41.27
73870;BME280;64924;42.140;24.762;2023-04-06T05:22:14;99316.88;;;7.99;40.69
73870;BME280;64924;42.140;24.762;2023-04-06T05:24:43;99321.50;;;8.20;40.17
73870;BME280;64924;42.140;24.762;2023-04-06T05:27:08;99298.63;;;8.23;40.27
73870;BME280;64924;42.140;24.762;2023-04-06T05:29:34;99267.03;;;8.09;39.86
73870;BME280;64924;42.140;24.762;2023-04-06T05:31:59;99319.47;;;8.58;39.58
73870;BME280;64924;42.140;24.762;2023-04-06T05:34:25;99335.03;;;8.71;39.45
73870;BME280;64924;42.140;24.762;2023-04-06T05:36:51;99318.47;;;8.81;39.43
73870;BME280;64924;42.140;24.762;2023-04-06T05:39:16;99317.16;;;9.19;38.71
73870;BME280;64924;42.140;24.762;2023-04-06T05:41:42;99310.00;;;9.61;37.72
73870;BME280;64924;42.140;24.762;2023-04-06T05:44:07;99308.09;;;10.30;36.75
73870;BME280;64924;42.140;24.762;2023-04-06T05:46:33;99275.00;;;11.54;34.31
73870;BME280;64924;42.140;24.762;2023-04-06T05:48:59;99301.91;;;12.59;32.46
73870;BME280;64924;42.140;24.762;2023-04-06T05:51:24;99308.75;;;12.68;32.44
73870;BME280;64924;42.140;24.762;2023-04-06T05:53:50;99290.59;;;12.94;31.40
73870;BME280;64924;42.140;24.762;2023-04-06T05:56:15;99306.13;;;12.93;31.36
73870;BME280;64924;42.140;24.762;2023-04-06T05:58:42;99251.44;;;12.05;32.49
73870;BME280;64924;42.140;24.762;2023-04-06T06:01:07;99295.81;;;13.52;30.92
73870;BME280;64924;42.140;24.762;2023-04-06T06:03:34;99268.13;;;14.46;29.13
73870;BME280;64924;42.140;24.762;2023-04-06T06:06:00;99280.41;;;15.62;27.48
73870;BME280;64924;42.140;24.762;2023-04-06T06:08:27;99266.47;;;15.87;27.43
73870;BME280;64924;42.140;24.762;2023-04-06T06:10:53;99268.81;;;16.58;25.73
73870;BME280;64924;42.140;24.762;2023-04-06T06:13:18;99264.63;;;16.27;26.44
73870;BME280;64924;42.140;24.762;2023-04-06T06:15:44;99261.34;;;16.42;25.88
73870;BME280;64924;42.140;24.762;2023-04-06T06:18:09;99252.94;;;16.89;25.43
73870;BME280;64924;42.140;24.762;2023-04-06T06:20:35;99258.97;;;17.36;24.98
73870;BME280;64924;42.140;24.762;2023-04-06T06:23:01;99247.91;;;17.31;24.74
73870;BME280;64924;42.140;24.762;2023-04-06T06:25:26;99240.78;;;17.85;24.36
73870;BME280;64924;42.140;24.762;2023-04-06T06:27:52;99243.72;;;18.17;23.74
73870;BME280;64924;42.140;24.762;2023-04-06T06:30:17;99210.56;;;18.07;23.18
73870;BME280;64924;42.140;24.762;2023-04-06T06:32:43;99226.31;;;18.12;23.33
73870;BME280;64924;42.140;24.762;2023-04-06T06:35:08;99234.25;;;17.19;24.20
73870;BME280;64924;42.140;24.762;2023-04-06T06:37:34;99223.63;;;17.06;24.22
73870;BME280;64924;42.140;24.762;2023-04-06T06:39:59;99261.94;;;17.01;24.77
73870;BME280;64924;42.140;24.762;2023-04-06T06:42:25;99267.06;;;17.76;23.95
73870;BME280;64924;42.140;24.762;2023-04-06T06:44:51;99254.31;;;18.30;23.54
73870;BME280;64924;42.140;24.762;2023-04-06T06:47:17;99254.88;;;18.54;22.88
73870;BME280;64924;42.140;24.762;2023-04-06T06:49:42;99223.63;;;18.17;22.68
73870;BME280;64924;42.140;24.762;2023-04-06T06:52:08;99267.56;;;18.55;22.82
73870;BME280;64924;42.140;24.762;2023-04-06T06:54:33;99243.88;;;19.08;22.04
73870;BME280;64924;42.140;24.762;2023-04-06T06:56:59;99259.44;;;18.44;23.19
73870;BME280;64924;42.140;24.762;2023-04-06T06:59:25;99255.66;;;19.30;22.21
73870;BME280;64924;42.140;24.762;2023-04-06T07:01:51;99237.25;;;19.73;22.01
73870;BME280;64924;42.140;24.762;2023-04-06T07:04:16;99249.22;;;19.89;21.43
73870;BME280;64924;42.140;24.762;2023-04-06T07:06:42;99196.81;;;18.78;21.87
73870;BME280;64924;42.140;24.762;2023-04-06T07:09:07;99244.59;;;19.25;22.58
73870;BME280;64924;42.140;24.762;2023-04-06T07:11:33;99245.66;;;19.19;22.30
73870;BME280;64924;42.140;24.762;2023-04-06T07:13:58;99243.06;;;19.08;22.44
73870;BME280;64924;42.140;24.762;2023-04-06T07:16:24;99230.28;;;18.69;22.67
73870;BME280;64924;42.140;24.762;2023-04-06T07:18:50;99245.81;;;19.40;22.71
73870;BME280;64924;42.140;24.762;2023-04-06T07:21:16;99247.81;;;19.49;22.12
73870;BME280;64924;42.140;24.762;2023-04-06T07:23:41;99242.16;;;19.61;21.88
73870;BME280;64924;42.140;24.762;2023-04-06T07:26:07;99210.53;;;19.74;21.73
73870;BME280;64924;42.140;24.762;2023-04-06T07:28:32;99253.69;;;19.26;22.13
73870;BME280;64924;42.140;24.762;2023-04-06T07:30:58;99261.66;;;19.22;22.41
73870;BME280;64924;42.140;24.762;2023-04-06T07:33:23;99259.88;;;19.75;21.90
73870;BME280;64924;42.140;24.762;2023-04-06T07:35:49;99251.06;;;20.25;21.28
73870;BME280;64924;42.140;24.762;2023-04-06T07:38:14;99218.75;;;20.21;20.92
73870;BME280;64924;42.140;24.762;2023-04-06T07:40:40;99252.56;;;20.48;21.15
73870;BME280;64924;42.140;24.762;2023-04-06T07:43:05;99246.28;;;20.68;21.10
73870;BME280;64924;42.140;24.762;2023-04-06T07:45:31;99245.00;;;21.42;20.30
73870;BME280;64924;42.140;24.762;2023-04-06T07:47:56;99246.66;;;21.38;20.50
73870;BME280;64924;42.140;24.762;2023-04-06T07:50:22;99238.59;;;21.82;20.07
73870;BME280;64924;42.140;24.762;2023-04-06T07:52:48;99246.13;;;21.35;20.08
73870;BME280;64924;42.140;24.762;2023-04-06T07:55:13;99254.41;;;21.35;20.40
73870;BME280;64924;42.140;24.762;2023-04-06T07:57:39;99247.72;;;21.01;20.34
73870;BME280;64924;42.140;24.762;2023-04-06T08:00:05;99248.41;;;20.46;20.89
73870;BME280;64924;42.140;24.762;2023-04-06T08:02:31;99234.94;;;20.59;21.07
73870;BME280;64924;42.140;24.762;2023-04-06T08:04:56;99240.47;;;20.64;20.86
73870;BME280;64924;42.140;24.762;2023-04-06T08:07:22;99255.97;;;20.13;21.68
73870;BME280;64924;42.140;24.762;2023-04-06T08:09:48;99242.16;;;19.61;22.10
73870;BME280;64924;42.140;24.762;2023-04-06T08:12:13;99235.69;;;19.87;21.69
73870;BME280;64924;42.140;24.762;2023-04-06T08:14:39;99243.78;;;20.09;21.62
73870;BME280;64924;42.140;24.762;2023-04-06T08:17:05;99246.38;;;20.26;21.50
73870;BME280;64924;42.140;24.762;2023-04-06T08:19:30;99228.28;;;19.93;21.69
73870;BME280;64924;42.140;24.762;2023-04-06T08:21:56;99243.34;;;20.27;21.77
73870;BME280;64924;42.140;24.762;2023-04-06T08:24:21;99232.72;;;20.56;21.67
73870;BME280;64924;42.140;24.762;2023-04-06T08:26:47;99229.72;;;20.83;21.10
73870;BME280;64924;42.140;24.762;2023-04-06T08:29:12;99236.00;;;20.48;21.48
73870;BME280;64924;42.140;24.762;2023-04-06T08:31:38;99225.75;;;20.44;22.14
73870;BME280;64924;42.140;24.762;2023-04-06T08:34:04;99236.94;;;20.17;22.26
73870;BME280;64924;42.140;24.762;2023-04-06T08:36:30;99232.66;;;20.46;22.28
73870;BME280;64924;42.140;24.762;2023-04-06T08:38:56;99222.72;;;20.45;22.24
73870;BME280;64924;42.140;24.762;2023-04-06T08:41:22;99189.13;;;20.63;21.54
73870;BME280;64924;42.140;24.762;2023-04-06T08:43:59;99216.50;;;20.13;21.95
73870;BME280;64924;42.140;24.762;2023-04-06T08:46:25;99154.47;;;18.84;22.86
73870;BME280;64924;42.140;24.762;2023-04-06T08:48:58;99214.72;;;19.44;23.10
73870;BME280;64924;42.140;24.762;2023-04-06T08:51:24;99213.53;;;19.72;22.63
73870;BME280;64924;42.140;24.762;2023-04-06T08:53:55;99203.16;;;19.84;22.31
73870;BME280;64924;42.140;24.762;2023-04-06T08:56:23;99196.63;;;20.06;22.29
73870;BME280;64924;42.140;24.762;2023-04-06T08:58:49;99199.59;;;20.56;22.01
73870;BME280;64924;42.140;24.762;2023-04-06T09:01:17;99205.25;;;20.24;21.63
73870;BME280;64924;42.140;24.762;2023-04-06T09:03:43;99188.38;;;20.11;22.14
73870;BME280;64924;42.140;24.762;2023-04-06T09:06:10;99202.88;;;20.53;21.90
73870;BME280;64924;42.140;24.762;2023-04-06T09:08:39;99196.91;;;20.97;21.45
73870;BME280;64924;42.140;24.762;2023-04-06T09:11:05;99189.16;;;20.79;21.18
73870;BME280;64924;42.140;24.762;2023-04-06T09:13:31;99194.38;;;20.85;21.83
73870;BME280;64924;42.140;24.762;2023-04-06T09:16:04;99185.28;;;20.85;21.89
73870;BME280;64924;42.140;24.762;2023-04-06T09:18:32;99188.09;;;20.12;22.07
73870;BME280;64924;42.140;24.762;2023-04-06T09:21:03;99177.13;;;19.65;22.86
73870;BME280;64924;42.140;24.762;2023-04-06T09:23:29;99182.38;;;19.29;22.99
73870;BME280;64924;42.140;24.762;2023-04-06T09:26:24;99170.06;;;18.73;23.62
73870;BME280;64924;42.140;24.762;2023-04-06T09:28:52;99178.94;;;18.04;24.51
73870;BME280;64924;42.140;24.762;2023-04-06T09:33:52;99176.47;;;17.86;25.38
73870;BME280;64924;42.140;24.762;2023-04-06T09:36:19;99160.50;;;17.83;25.20
73870;BME280;64924;42.140;24.762;2023-04-06T09:41:23;99159.38;;;17.79;25.35
73870;BME280;64924;42.140;24.762;2023-04-06T09:44:06;99160.13;;;17.58;25.39
73870;BME280;64924;42.140;24.762;2023-04-06T09:46:37;99127.91;;;17.31;25.43
73870;BME280;64924;42.140;24.762;2023-04-06T09:49:05;99126.19;;;17.09;25.51
73870;BME280;64924;42.140;24.762;2023-04-06T09:51:38;99152.88;;;17.13;25.53
73870;BME280;64924;42.140;24.762;2023-04-06T09:54:04;99163.38;;;16.83;25.44
73870;BME280;64924;42.140;24.762;2023-04-06T09:56:58;99149.66;;;17.16;25.67
73870;BME280;64924;42.140;24.762;2023-04-06T10:02:39;99135.91;;;17.16;25.52
73870;BME280;64924;42.140;24.762;2023-04-06T10:05:07;99142.53;;;16.98;25.60
73870;BME280;64924;42.140;24.762;2023-04-06T10:07:35;99140.94;;;16.69;25.96
73870;BME280;64924;42.140;24.762;2023-04-06T10:10:02;99151.13;;;16.57;26.07
73870;BME280;64924;42.140;24.762;2023-04-06T10:12:28;99145.19;;;16.48;26.41
73870;BME280;64924;42.140;24.762;2023-04-06T10:14:54;99119.59;;;16.43;26.10
73870;BME280;64924;42.140;24.762;2023-04-06T10:17:20;99103.56;;;16.06;26.51
73870;BME280;64924;42.140;24.762;2023-04-06T10:19:59;99146.38;;;16.52;26.07
73870;BME280;64924;42.140;24.762;2023-04-06T10:22:32;99130.78;;;16.24;26.00
73870;BME280;64924;42.140;24.762;2023-04-06T10:25:01;99145.63;;;16.00;26.55
73870;BME280;64924;42.140;24.762;2023-04-06T10:27:28;99138.41;;;15.94;26.08
73870;BME280;64924;42.140;24.762;2023-04-06T10:30:01;99130.94;;;15.89;27.37
73870;BME280;64924;42.140;24.762;2023-04-06T10:32:38;99131.13;;;16.28;26.27
73870;BME280;64924;42.140;24.762;2023-04-06T10:35:10;99090.34;;;16.03;26.37
73870;BME280;64924;42.140;24.762;2023-04-06T10:37:54;99115.03;;;16.31;26.33
73870;BME280;64924;42.140;24.762;2023-04-06T10:40:26;99125.41;;;16.29;26.51
73870;BME280;64924;42.140;24.762;2023-04-06T10:42:55;99112.94;;;16.38;26.89
73870;BME280;64924;42.140;24.762;2023-04-06T10:45:25;99118.50;;;16.44;26.83
73870;BME280;64924;42.140;24.762;2023-04-06T10:47:55;99114.94;;;16.43;26.68
73870;BME280;64924;42.140;24.762;2023-04-06T10:50:21;99120.75;;;16.30;26.88
73870;BME280;64924;42.140;24.762;2023-04-06T10:53:01;99078.47;;;16.26;26.29
73870;BME280;64924;42.140;24.762;2023-04-06T10:55:30;99105.44;;;16.34;26.33
73870;BME280;64924;42.140;24.762;2023-04-06T10:57:56;99103.75;;;16.16;26.66
73870;BME280;64924;42.140;24.762;2023-04-06T11:00:22;99108.13;;;16.29;26.30
73870;BME280;64924;42.140;24.762;2023-04-06T11:02:48;99106.25;;;16.18;26.19
73870;BME280;64924;42.140;24.762;2023-04-06T11:05:14;99103.13;;;16.26;26.76
73870;BME280;64924;42.140;24.762;2023-04-06T11:07:40;99101.13;;;16.38;26.50
73870;BME280;64924;42.140;24.762;2023-04-06T11:10:09;99081.09;;;16.37;25.97
73870;BME280;64924;42.140;24.762;2023-04-06T11:12:35;99089.06;;;16.22;26.35
73870;BME280;64924;42.140;24.762;2023-04-06T11:15:03;99096.91;;;16.02;26.27
73870;BME280;64924;42.140;24.762;2023-04-06T11:17:35;99089.47;;;16.14;25.97
73870;BME280;64924;42.140;24.762;2023-04-06T11:20:04;99044.69;;;16.09;26.04
73870;BME280;64924;42.140;24.762;2023-04-06T11:22:34;99084.03;;;16.31;25.90
73870;BME280;64924;42.140;24.762;2023-04-06T11:25:07;99071.41;;;16.63;25.88
73870;BME280;64924;42.140;24.762;2023-04-06T11:27:35;99041.47;;;16.12;26.06
73870;BME280;64924;42.140;24.762;2023-04-06T11:30:02;99068.81;;;16.40;25.97
73870;BME280;64924;42.140;24.762;2023-04-06T11:32:28;99075.88;;;16.36;25.90
73870;BME280;64924;42.140;24.762;2023-04-06T11:34:54;99074.13;;;16.47;25.67
73870;BME280;64924;42.140;24.762;2023-04-06T11:37:19;99067.41;;;16.54;25.34
73870;BME280;64924;42.140;24.762;2023-04-06T11:39:50;99073.69;;;16.66;25.44
73870;BME280;64924;42.140;24.762;2023-04-06T11:42:27;99069.66;;;16.57;25.81
73870;BME280;64924;42.140;24.762;2023-04-06T11:44:58;99078.22;;;16.27;25.45
73870;BME280;64924;42.140;24.762;2023-04-06T11:47:33;99062.50;;;16.23;25.66
73870;BME280;64924;42.140;24.762;2023-04-06T11:50:09;99073.22;;;16.24;26.07
73870;BME280;64924;42.140;24.762;2023-04-06T11:52:35;99070.72;;;16.23;25.69
73870;BME280;64924;42.140;24.762;2023-04-06T11:55:14;99085.44;;;16.33;25.94
73870;BME280;64924;42.140;24.762;2023-04-06T11:57:41;99069.75;;;16.00;25.94
73870;BME280;64924;42.140;24.762;2023-04-06T12:00:08;99076.25;;;15.94;26.28
73870;BME280;64924;42.140;24.762;2023-04-06T12:02:38;99075.00;;;15.74;27.21
73870;BME280;64924;42.140;24.762;2023-04-06T12:05:04;99058.69;;;15.67;27.06
73870;BME280;64924;42.140;24.762;2023-04-06T12:07:30;99036.69;;;15.62;26.92
73870;BME280;64924;42.140;24.762;2023-04-06T12:09:56;99072.84;;;15.76;26.77
73870;BME280;64924;42.140;24.762;2023-04-06T12:12:22;99059.97;;;15.76;26.73
73870;BME280;64924;42.140;24.762;2023-04-06T12:14:47;99058.63;;;15.90;26.88
73870;BME280;64924;42.140;24.762;2023-04-06T12:17:12;99068.31;;;15.98;27.01
73870;BME280;64924;42.140;24.762;2023-04-06T12:19:38;99019.00;;;15.81;27.04
73870;BME280;64924;42.140;24.762;2023-04-06T12:22:03;99027.56;;;16.01;27.18
73870;BME280;64924;42.140;24.762;2023-04-06T12:24:29;99048.88;;;16.28;27.00
73870;BME280;64924;42.140;24.762;2023-04-06T12:26:55;99055.88;;;16.52;26.77
73870;BME280;64924;42.140;24.762;2023-04-06T12:29:20;99063.31;;;16.68;26.53
73870;BME280;64924;42.140;24.762;2023-04-06T12:31:46;99052.38;;;16.74;26.42
73870;BME280;64924;42.140;24.762;2023-04-06T12:34:11;99058.56;;;16.64;26.19
73870;BME280;64924;42.140;24.762;2023-04-06T12:36:38;99060.84;;;16.55;26.32
73870;BME280;64924;42.140;24.762;2023-04-06T12:39:04;99053.91;;;16.64;26.54
73870;BME280;64924;42.140;24.762;2023-04-06T12:41:30;99057.25;;;16.66;26.45
73870;BME280;64924;42.140;24.762;2023-04-06T12:43:56;99060.69;;;16.45;26.62
73870;BME280;64924;42.140;24.762;2023-04-06T12:46:23;99042.97;;;16.53;26.69
73870;BME280;64924;42.140;24.762;2023-04-06T12:48:48;99042.91;;;16.48;26.52
73870;BME280;64924;42.140;24.762;2023-04-06T12:51:14;99054.22;;;16.51;26.60
73870;BME280;64924;42.140;24.762;2023-04-06T12:53:40;99042.97;;;16.53;26.31
73870;BME280;64924;42.140;24.762;2023-04-06T12:56:16;99044.91;;;16.52;26.73
73870;BME280;64924;42.140;24.762;2023-04-06T12:58:43;99028.19;;;16.37;27.04
73870;BME280;64924;42.140;24.762;2023-04-06T13:01:08;99051.97;;;16.31;27.10